sensor_id;sensor_type;location;lat;lon;timestamp;P1;durP1;ratioP1;P2;durP2;ratioP2
63906;SDS011;50075;49.484;11.238;2022-09-29T00:01:36;37.60;;;8.00;;
63906;SDS011;50075;49.484;11.238;2022-09-29T00:04:01;45.83;;;9.65;;
63906;SDS011;50075;49.484;11.238;2022-09-29T00:06:26;37.50;;;9.10;;
63906;SDS011;50075;49.484;11.238;2022-09-29T00:08:52;41.08;;;9.00;;
63906;SDS011;50075;49.484;11.238;2022-09-29T00:11:17;40.65;;;9.30;;
63906;SDS011;50075;49.484;11.238;2022-09-29T00:13:44;38.53;;;9.15;;
63906;SDS011;50075;49.484;11.238;2022-09-29T00:16:11;40.38;;;9.10;;
63906;SDS011;50075;49.484;11.238;2022-09-29T00:18:37;46.08;;;8.95;;
63906;SDS011;50075;49.484;11.238;2022-09-29T00:21:03;35.40;;;8.70;;
63906;SDS011;50075;49.484;11.238;2022-09-29T00:23:33;40.88;;;8.68;;
63906;SDS011;50075;49.484;11.238;2022-09-29T00:28:28;48.22;;;8.25;;
63906;SDS011;50075;49.484;11.238;2022-09-29T00:30:54;38.55;;;8.35;;
63906;SDS011;50075;49.484;11.238;2022-09-29T00:33:19;37.03;;;7.75;;
63906;SDS011;50075;49.484;11.238;2022-09-29T00:35:51;41.10;;;8.00;;
63906;SDS011;50075;49.484;11.238;2022-09-29T00:38:20;39.63;;;8.38;;
63906;SDS011;50075;49.484;11.238;2022-09-29T00:40:45;43.92;;;8.85;;
63906;SDS011;50075;49.484;11.238;2022-09-29T00:43:11;33.58;;;8.30;;
63906;SDS011;50075;49.484;11.238;2022-09-29T00:45:46;49.60;;;9.55;;
63906;SDS011;50075;49.484;11.238;2022-09-29T00:48:13;36.67;;;8.77;;
63906;SDS011;50075;49.484;11.238;2022-09-29T00:50:50;43.25;;;9.13;;
63906;SDS011;50075;49.484;11.238;2022-09-29T00:53:17;38.22;;;7.57;;
63906;SDS011;50075;49.484;11.238;2022-09-29T00:55:47;48.83;;;9.00;;
63906;SDS011;50075;49.484;11.238;2022-09-29T00:58:52;36.10;;;8.10;;
63906;SDS011;50075;49.484;11.238;2022-09-29T01:01:21;39.97;;;8.10;;
63906;SDS011;50075;49.484;11.238;2022-09-29T01:03:47;34.10;;;7.78;;
63906;SDS011;50075;49.484;11.238;2022-09-29T01:06:27;38.80;;;8.23;;
63906;SDS011;50075;49.484;11.238;2022-09-29T01:09:18;40.08;;;8.02;;
63906;SDS011;50075;49.484;11.238;2022-09-29T01:11:48;33.13;;;8.35;;
63906;SDS011;50075;49.484;11.238;2022-09-29T01:14:16;33.65;;;7.85;;
63906;SDS011;50075;49.484;11.238;2022-09-29T01:16:43;41.58;;;8.13;;
63906;SDS011;50075;49.484;11.238;2022-09-29T01:19:16;40.92;;;8.25;;
63906;SDS011;50075;49.484;11.238;2022-09-29T01:24:39;33.72;;;7.10;;
63906;SDS011;50075;49.484;11.238;2022-09-29T01:30:50;35.17;;;7.43;;
63906;SDS011;50075;49.484;11.238;2022-09-29T01:39:14;34.10;;;6.72;;
63906;SDS011;50075;49.484;11.238;2022-09-29T01:44:22;38.38;;;7.40;;
63906;SDS011;50075;49.484;11.238;2022-09-29T01:46:51;40.30;;;7.40;;
63906;SDS011;50075;49.484;11.238;2022-09-29T01:49:20;37.22;;;7.20;;
63906;SDS011;50075;49.484;11.238;2022-09-29T01:51:55;35.45;;;7.22;;
63906;SDS011;50075;49.484;11.238;2022-09-29T01:54:36;38.35;;;7.72;;
63906;SDS011;50075;49.484;11.238;2022-09-29T01:57:14;35.58;;;7.28;;
63906;SDS011;50075;49.484;11.238;2022-09-29T02:00:00;35.00;;;7.00;;
63906;SDS011;50075;49.484;11.238;2022-09-29T02:02:36;35.90;;;7.10;;
63906;SDS011;50075;49.484;11.238;2022-09-29T02:05:09;25.33;;;6.40;;
63906;SDS011;50075;49.484;11.238;2022-09-29T02:07:57;31.85;;;7.13;;
63906;SDS011;50075;49.484;11.238;2022-09-29T02:10:33;35.22;;;7.03;;
63906;SDS011;50075;49.484;11.238;2022-09-29T02:13:05;37.28;;;6.95;;
63906;SDS011;50075;49.484;11.238;2022-09-29T02:15:34;47.67;;;7.93;;
63906;SDS011;50075;49.484;11.238;2022-09-29T02:18:09;29.35;;;6.75;;
63906;SDS011;50075;49.484;11.238;2022-09-29T02:20:41;34.55;;;7.30;;
63906;SDS011;50075;49.484;11.238;2022-09-29T02:23:06;30.38;;;6.72;;
63906;SDS011;50075;49.484;11.238;2022-09-29T02:25:34;38.22;;;7.45;;
63906;SDS011;50075;49.484;11.238;2022-09-29T02:28:02;38.53;;;7.60;;
63906;SDS011;50075;49.484;11.238;2022-09-29T02:30:29;39.05;;;7.13;;
63906;SDS011;50075;49.484;11.238;2022-09-29T02:32:54;36.63;;;7.65;;
63906;SDS011;50075;49.484;11.238;2022-09-29T02:35:19;39.20;;;7.50;;
63906;SDS011;50075;49.484;11.238;2022-09-29T02:56:48;26.60;;;6.00;;
63906;SDS011;50075;49.484;11.238;2022-09-29T02:59:23;45.58;;;8.05;;
63906;SDS011;50075;49.484;11.238;2022-09-29T03:01:59;26.08;;;5.68;;
63906;SDS011;50075;49.484;11.238;2022-09-29T03:04:25;37.88;;;7.75;;
63906;SDS011;50075;49.484;11.238;2022-09-29T03:06:51;32.72;;;6.82;;
63906;SDS011;50075;49.484;11.238;2022-09-29T03:09:18;39.38;;;6.82;;
63906;SDS011;50075;49.484;11.238;2022-09-29T03:11:43;30.65;;;6.70;;
63906;SDS011;50075;49.484;11.238;2022-09-29T03:14:09;39.60;;;7.68;;
63906;SDS011;50075;49.484;11.238;2022-09-29T03:16:34;41.72;;;7.97;;
63906;SDS011;50075;49.484;11.238;2022-09-29T03:19:01;31.98;;;7.10;;
63906;SDS011;50075;49.484;11.238;2022-09-29T03:21:26;39.65;;;6.70;;
63906;SDS011;50075;49.484;11.238;2022-09-29T03:23:52;29.20;;;6.90;;
63906;SDS011;50075;49.484;11.238;2022-09-29T03:26:17;38.58;;;7.40;;
63906;SDS011;50075;49.484;11.238;2022-09-29T03:28:42;38.63;;;7.68;;
63906;SDS011;50075;49.484;11.238;2022-09-29T03:31:08;30.90;;;6.93;;
63906;SDS011;50075;49.484;11.238;2022-09-29T03:33:34;26.60;;;5.97;;
63906;SDS011;50075;49.484;11.238;2022-09-29T03:36:02;41.80;;;8.05;;
63906;SDS011;50075;49.484;11.238;2022-09-29T03:38:29;32.78;;;7.63;;
63906;SDS011;50075;49.484;11.238;2022-09-29T03:40:55;37.25;;;6.68;;
63906;SDS011;50075;49.484;11.238;2022-09-29T03:43:20;30.48;;;6.57;;
63906;SDS011;50075;49.484;11.238;2022-09-29T03:45:49;43.05;;;7.05;;
63906;SDS011;50075;49.484;11.238;2022-09-29T03:48:16;38.58;;;7.55;;
63906;SDS011;50075;49.484;11.238;2022-09-29T03:50:43;38.00;;;7.75;;
63906;SDS011;50075;49.484;11.238;2022-09-29T03:53:08;42.15;;;7.65;;
63906;SDS011;50075;49.484;11.238;2022-09-29T03:55:34;39.58;;;8.30;;
63906;SDS011;50075;49.484;11.238;2022-09-29T03:57:59;45.60;;;7.80;;
63906;SDS011;50075;49.484;11.238;2022-09-29T04:00:24;41.22;;;7.70;;
63906;SDS011;50075;49.484;11.238;2022-09-29T04:02:51;35.83;;;7.43;;
63906;SDS011;50075;49.484;11.238;2022-09-29T04:05:18;46.65;;;8.30;;
63906;SDS011;50075;49.484;11.238;2022-09-29T04:07:43;36.65;;;6.90;;
63906;SDS011;50075;49.484;11.238;2022-09-29T04:10:09;38.25;;;7.00;;
63906;SDS011;50075;49.484;11.238;2022-09-29T04:12:34;44.88;;;8.15;;
63906;SDS011;50075;49.484;11.238;2022-09-29T04:14:59;41.08;;;7.57;;
63906;SDS011;50075;49.484;11.238;2022-09-29T04:17:25;35.47;;;6.63;;
63906;SDS011;50075;49.484;11.238;2022-09-29T04:19:50;38.35;;;7.93;;
63906;SDS011;50075;49.484;11.238;2022-09-29T04:22:16;39.33;;;7.43;;
63906;SDS011;50075;49.484;11.238;2022-09-29T04:24:44;33.35;;;6.10;;
63906;SDS011;50075;49.484;11.238;2022-09-29T04:27:13;30.80;;;6.47;;
63906;SDS011;50075;49.484;11.238;2022-09-29T04:29:38;42.15;;;7.43;;
63906;SDS011;50075;49.484;11.238;2022-09-29T04:32:04;34.90;;;7.53;;
63906;SDS011;50075;49.484;11.238;2022-09-29T04:34:30;37.20;;;8.27;;
63906;SDS011;50075;49.484;11.238;2022-09-29T04:36:56;39.63;;;8.25;;
63906;SDS011;50075;49.484;11.238;2022-09-29T04:39:21;33.78;;;7.78;;
63906;SDS011;50075;49.484;11.238;2022-09-29T04:41:47;35.55;;;7.28;;
63906;SDS011;50075;49.484;11.238;2022-09-29T04:44:12;38.22;;;6.75;;
63906;SDS011;50075;49.484;11.238;2022-09-29T04:46:37;42.33;;;8.38;;
63906;SDS011;50075;49.484;11.238;2022-09-29T04:49:03;42.45;;;7.97;;
63906;SDS011;50075;49.484;11.238;2022-09-29T04:51:28;33.95;;;7.15;;
63906;SDS011;50075;49.484;11.238;2022-09-29T04:53:53;37.63;;;7.00;;
63906;SDS011;50075;49.484;11.238;2022-09-29T04:56:19;37.55;;;8.25;;
63906;SDS011;50075;49.484;11.238;2022-09-29T04:58:44;36.22;;;7.80;;
63906;SDS011;50075;49.484;11.238;2022-09-29T05:01:10;36.97;;;7.28;;
63906;SDS011;50075;49.484;11.238;2022-09-29T05:03:39;34.40;;;7.55;;
63906;SDS011;50075;49.484;11.238;2022-09-29T05:06:06;45.35;;;8.55;;
63906;SDS011;50075;49.484;11.238;2022-09-29T05:08:33;40.40;;;7.97;;
63906;SDS011;50075;49.484;11.238;2022-09-29T05:11:01;47.83;;;8.70;;
63906;SDS011;50075;49.484;11.238;2022-09-29T05:13:28;34.72;;;7.22;;
63906;SDS011;50075;49.484;11.238;2022-09-29T05:15:54;37.13;;;7.88;;
63906;SDS011;50075;49.484;11.238;2022-09-29T05:18:20;35.42;;;8.05;;
63906;SDS011;50075;49.484;11.238;2022-09-29T05:20:45;36.72;;;8.40;;
63906;SDS011;50075;49.484;11.238;2022-09-29T05:23:11;41.35;;;8.15;;
63906;SDS011;50075;49.484;11.238;2022-09-29T05:25:36;42.97;;;8.05;;
63906;SDS011;50075;49.484;11.238;2022-09-29T05:28:02;46.53;;;9.52;;
63906;SDS011;50075;49.484;11.238;2022-09-29T05:30:27;42.53;;;8.30;;
63906;SDS011;50075;49.484;11.238;2022-09-29T05:32:53;40.38;;;7.85;;
63906;SDS011;50075;49.484;11.238;2022-09-29T05:35:18;32.28;;;7.30;;
63906;SDS011;50075;49.484;11.238;2022-09-29T05:37:44;35.03;;;7.68;;
63906;SDS011;50075;49.484;11.238;2022-09-29T05:40:10;35.40;;;7.18;;
63906;SDS011;50075;49.484;11.238;2022-09-29T05:42:36;37.45;;;9.68;;
63906;SDS011;50075;49.484;11.238;2022-09-29T05:45:01;46.22;;;8.70;;
63906;SDS011;50075;49.484;11.238;2022-09-29T05:47:27;40.75;;;8.80;;
63906;SDS011;50075;49.484;11.238;2022-09-29T05:49:52;40.42;;;8.95;;
63906;SDS011;50075;49.484;11.238;2022-09-29T05:52:18;39.78;;;9.20;;
63906;SDS011;50075;49.484;11.238;2022-09-29T05:54:43;34.75;;;8.27;;
63906;SDS011;50075;49.484;11.238;2022-09-29T05:57:08;36.70;;;8.48;;
63906;SDS011;50075;49.484;11.238;2022-09-29T05:59:34;43.90;;;8.98;;
63906;SDS011;50075;49.484;11.238;2022-09-29T06:01:59;42.58;;;8.07;;
63906;SDS011;50075;49.484;11.238;2022-09-29T06:04:24;35.45;;;7.97;;
63906;SDS011;50075;49.484;11.238;2022-09-29T06:06:49;35.40;;;8.20;;
63906;SDS011;50075;49.484;11.238;2022-09-29T06:09:15;31.23;;;7.65;;
63906;SDS011;50075;49.484;11.238;2022-09-29T06:11:40;43.80;;;7.90;;
63906;SDS011;50075;49.484;11.238;2022-09-29T06:14:06;38.63;;;8.05;;
63906;SDS011;50075;49.484;11.238;2022-09-29T06:16:32;37.10;;;7.63;;
63906;SDS011;50075;49.484;11.238;2022-09-29T06:19:01;40.75;;;8.73;;
63906;SDS011;50075;49.484;11.238;2022-09-29T06:21:27;35.95;;;7.95;;
63906;SDS011;50075;49.484;11.238;2022-09-29T06:23:54;40.47;;;8.43;;
63906;SDS011;50075;49.484;11.238;2022-09-29T06:26:20;37.85;;;8.45;;
63906;SDS011;50075;49.484;11.238;2022-09-29T06:28:47;40.15;;;7.95;;
63906;SDS011;50075;49.484;11.238;2022-09-29T06:31:13;29.70;;;7.82;;
63906;SDS011;50075;49.484;11.238;2022-09-29T06:33:40;40.33;;;7.55;;
63906;SDS011;50075;49.484;11.238;2022-09-29T06:36:16;32.38;;;6.60;;
63906;SDS011;50075;49.484;11.238;2022-09-29T06:39:00;39.08;;;8.50;;
63906;SDS011;50075;49.484;11.238;2022-09-29T06:41:26;37.28;;;7.93;;
63906;SDS011;50075;49.484;11.238;2022-09-29T06:43:53;30.30;;;7.53;;
63906;SDS011;50075;49.484;11.238;2022-09-29T06:46:19;32.47;;;8.13;;
63906;SDS011;50075;49.484;11.238;2022-09-29T06:48:45;30.88;;;7.35;;
63906;SDS011;50075;49.484;11.238;2022-09-29T06:51:10;42.47;;;8.35;;
63906;SDS011;50075;49.484;11.238;2022-09-29T06:53:36;29.70;;;8.02;;
63906;SDS011;50075;49.484;11.238;2022-09-29T06:56:01;34.47;;;7.68;;
63906;SDS011;50075;49.484;11.238;2022-09-29T06:58:27;31.52;;;7.80;;
63906;SDS011;50075;49.484;11.238;2022-09-29T07:00:53;31.45;;;7.35;;
63906;SDS011;50075;49.484;11.238;2022-09-29T07:03:19;28.67;;;7.75;;
63906;SDS011;50075;49.484;11.238;2022-09-29T07:05:45;34.60;;;7.65;;
63906;SDS011;50075;49.484;11.238;2022-09-29T07:08:10;23.67;;;7.18;;
63906;SDS011;50075;49.484;11.238;2022-09-29T07:10:36;33.97;;;7.65;;
63906;SDS011;50075;49.484;11.238;2022-09-29T07:13:01;31.17;;;7.40;;
63906;SDS011;50075;49.484;11.238;2022-09-29T07:15:26;28.25;;;7.70;;
63906;SDS011;50075;49.484;11.238;2022-09-29T07:17:58;29.60;;;7.38;;
63906;SDS011;50075;49.484;11.238;2022-09-29T07:20:25;26.08;;;6.55;;
63906;SDS011;50075;49.484;11.238;2022-09-29T07:22:51;31.15;;;7.45;;
63906;SDS011;50075;49.484;11.238;2022-09-29T07:25:17;24.08;;;7.45;;
63906;SDS011;50075;49.484;11.238;2022-09-29T07:27:42;38.90;;;8.40;;
63906;SDS011;50075;49.484;11.238;2022-09-29T07:30:08;28.25;;;7.30;;
63906;SDS011;50075;49.484;11.238;2022-09-29T07:32:34;28.40;;;7.07;;
63906;SDS011;50075;49.484;11.238;2022-09-29T07:35:00;31.88;;;7.82;;
63906;SDS011;50075;49.484;11.238;2022-09-29T07:37:26;30.40;;;7.35;;
63906;SDS011;50075;49.484;11.238;2022-09-29T07:39:52;35.60;;;8.10;;
63906;SDS011;50075;49.484;11.238;2022-09-29T07:42:18;28.27;;;7.55;;
63906;SDS011;50075;49.484;11.238;2022-09-29T07:44:45;28.48;;;7.35;;
63906;SDS011;50075;49.484;11.238;2022-09-29T07:47:11;35.05;;;8.07;;
63906;SDS011;50075;49.484;11.238;2022-09-29T07:49:37;29.38;;;7.43;;
63906;SDS011;50075;49.484;11.238;2022-09-29T07:52:03;31.42;;;7.30;;
63906;SDS011;50075;49.484;11.238;2022-09-29T07:54:28;27.70;;;7.32;;
63906;SDS011;50075;49.484;11.238;2022-09-29T07:56:55;27.55;;;7.32;;
63906;SDS011;50075;49.484;11.238;2022-09-29T07:59:20;34.08;;;8.10;;
63906;SDS011;50075;49.484;11.238;2022-09-29T08:01:46;23.13;;;7.00;;
63906;SDS011;50075;49.484;11.238;2022-09-29T08:04:11;32.63;;;7.85;;
63906;SDS011;50075;49.484;11.238;2022-09-29T08:06:37;27.35;;;7.75;;
63906;SDS011;50075;49.484;11.238;2022-09-29T08:09:04;24.80;;;7.57;;
63906;SDS011;50075;49.484;11.238;2022-09-29T08:11:29;27.55;;;8.15;;
63906;SDS011;50075;49.484;11.238;2022-09-29T08:13:55;26.60;;;7.38;;
63906;SDS011;50075;49.484;11.238;2022-09-29T08:16:21;25.98;;;7.38;;
63906;SDS011;50075;49.484;11.238;2022-09-29T08:18:46;28.23;;;7.50;;
63906;SDS011;50075;49.484;11.238;2022-09-29T08:21:12;28.70;;;7.28;;
63906;SDS011;50075;49.484;11.238;2022-09-29T08:23:40;30.65;;;7.38;;
63906;SDS011;50075;49.484;11.238;2022-09-29T08:26:07;28.67;;;7.07;;
63906;SDS011;50075;49.484;11.238;2022-09-29T08:28:34;30.00;;;7.13;;
63906;SDS011;50075;49.484;11.238;2022-09-29T08:31:02;23.20;;;6.50;;
63906;SDS011;50075;49.484;11.238;2022-09-29T08:33:28;23.65;;;6.20;;
63906;SDS011;50075;49.484;11.238;2022-09-29T08:35:58;24.55;;;6.30;;
63906;SDS011;50075;49.484;11.238;2022-09-29T08:38:24;21.85;;;6.00;;
63906;SDS011;50075;49.484;11.238;2022-09-29T08:40:50;20.10;;;6.30;;
63906;SDS011;50075;49.484;11.238;2022-09-29T08:43:20;21.38;;;5.88;;
63906;SDS011;50075;49.484;11.238;2022-09-29T08:45:48;26.65;;;6.85;;
63906;SDS011;50075;49.484;11.238;2022-09-29T08:48:21;16.45;;;5.50;;
63906;SDS011;50075;49.484;11.238;2022-09-29T08:50:59;19.95;;;5.75;;
63906;SDS011;50075;49.484;11.238;2022-09-29T08:53:29;21.75;;;6.13;;
63906;SDS011;50075;49.484;11.238;2022-09-29T08:55:59;24.13;;;6.50;;
63906;SDS011;50075;49.484;11.238;2022-09-29T08:58:28;18.50;;;5.88;;
63906;SDS011;50075;49.484;11.238;2022-09-29T09:06:06;21.88;;;5.70;;
63906;SDS011;50075;49.484;11.238;2022-09-29T09:09:00;20.00;;;5.63;;
63906;SDS011;50075;49.484;11.238;2022-09-29T09:11:35;15.90;;;5.38;;
63906;SDS011;50075;49.484;11.238;2022-09-29T09:14:12;21.23;;;5.88;;
63906;SDS011;50075;49.484;11.238;2022-09-29T09:19:52;17.55;;;5.60;;
63906;SDS011;50075;49.484;11.238;2022-09-29T09:28:05;24.33;;;6.47;;
63906;SDS011;50075;49.484;11.238;2022-09-29T09:30:43;18.35;;;5.57;;
63906;SDS011;50075;49.484;11.238;2022-09-29T09:36:10;20.92;;;5.82;;
63906;SDS011;50075;49.484;11.238;2022-09-29T09:41:25;20.15;;;5.65;;
63906;SDS011;50075;49.484;11.238;2022-09-29T09:43:55;18.90;;;5.80;;
63906;SDS011;50075;49.484;11.238;2022-09-29T09:49:25;17.63;;;5.35;;
63906;SDS011;50075;49.484;11.238;2022-09-29T09:52:02;19.42;;;5.32;;
63906;SDS011;50075;49.484;11.238;2022-09-29T09:54:43;20.90;;;5.43;;
63906;SDS011;50075;49.484;11.238;2022-09-29T10:02:55;29.92;;;5.90;;
63906;SDS011;50075;49.484;11.238;2022-09-29T10:05:23;22.45;;;4.97;;
63906;SDS011;50075;49.484;11.238;2022-09-29T10:07:56;24.40;;;4.75;;
63906;SDS011;50075;49.484;11.238;2022-09-29T10:10:24;21.30;;;4.75;;
63906;SDS011;50075;49.484;11.238;2022-09-29T10:15:21;24.50;;;4.75;;
63906;SDS011;50075;49.484;11.238;2022-09-29T10:18:03;24.23;;;4.57;;
63906;SDS011;50075;49.484;11.238;2022-09-29T10:20:37;27.48;;;5.15;;
63906;SDS011;50075;49.484;11.238;2022-09-29T10:26:07;27.52;;;5.03;;
63906;SDS011;50075;49.484;11.238;2022-09-29T10:31:22;25.35;;;4.65;;
63906;SDS011;50075;49.484;11.238;2022-09-29T10:33:52;29.35;;;5.07;;
63906;SDS011;50075;49.484;11.238;2022-09-29T10:36:20;25.90;;;4.72;;
63906;SDS011;50075;49.484;11.238;2022-09-29T10:38:47;27.40;;;4.47;;
63906;SDS011;50075;49.484;11.238;2022-09-29T10:41:15;24.98;;;4.32;;
63906;SDS011;50075;49.484;11.238;2022-09-29T10:43:44;34.47;;;5.10;;
63906;SDS011;50075;49.484;11.238;2022-09-29T10:49:15;19.60;;;3.97;;
63906;SDS011;50075;49.484;11.238;2022-09-29T10:52:20;23.88;;;4.43;;
63906;SDS011;50075;49.484;11.238;2022-09-29T10:54:52;25.27;;;4.53;;
63906;SDS011;50075;49.484;11.238;2022-09-29T10:57:25;31.27;;;5.35;;
63906;SDS011;50075;49.484;11.238;2022-09-29T10:59:52;28.25;;;4.78;;
63906;SDS011;50075;49.484;11.238;2022-09-29T11:02:21;25.50;;;4.68;;
63906;SDS011;50075;49.484;11.238;2022-09-29T11:04:50;25.85;;;4.72;;
63906;SDS011;50075;49.484;11.238;2022-09-29T11:07:18;27.58;;;6.18;;
63906;SDS011;50075;49.484;11.238;2022-09-29T11:09:44;31.65;;;5.95;;
63906;SDS011;50075;49.484;11.238;2022-09-29T11:14:59;28.88;;;6.07;;
63906;SDS011;50075;49.484;11.238;2022-09-29T11:19:54;40.45;;;8.75;;
63906;SDS011;50075;49.484;11.238;2022-09-29T11:25:24;34.78;;;9.38;;
63906;SDS011;50075;49.484;11.238;2022-09-29T11:30:20;32.75;;;8.40;;
63906;SDS011;50075;49.484;11.238;2022-09-29T11:32:51;33.40;;;6.32;;
63906;SDS011;50075;49.484;11.238;2022-09-29T11:41:08;34.00;;;6.07;;
63906;SDS011;50075;49.484;11.238;2022-09-29T11:48:54;26.73;;;4.80;;
63906;SDS011;50075;49.484;11.238;2022-09-29T11:56:55;28.85;;;4.80;;
63906;SDS011;50075;49.484;11.238;2022-09-29T12:02:18;27.50;;;4.65;;
63906;SDS011;50075;49.484;11.238;2022-09-29T12:07:55;27.08;;;5.50;;
63906;SDS011;50075;49.484;11.238;2022-09-29T12:13:40;31.42;;;6.10;;
63906;SDS011;50075;49.484;11.238;2022-09-29T12:16:15;26.85;;;5.72;;
63906;SDS011;50075;49.484;11.238;2022-09-29T12:18:46;32.00;;;5.65;;
63906;SDS011;50075;49.484;11.238;2022-09-29T12:21:16;29.27;;;5.57;;
63906;SDS011;50075;49.484;11.238;2022-09-29T12:23:53;28.63;;;5.38;;
63906;SDS011;50075;49.484;11.238;2022-09-29T12:26:22;28.73;;;5.28;;
63906;SDS011;50075;49.484;11.238;2022-09-29T12:28:54;32.90;;;6.10;;
63906;SDS011;50075;49.484;11.238;2022-09-29T12:31:38;39.15;;;6.13;;
63906;SDS011;50075;49.484;11.238;2022-09-29T12:34:14;32.85;;;5.40;;
63906;SDS011;50075;49.484;11.238;2022-09-29T12:36:46;43.53;;;6.18;;
63906;SDS011;50075;49.484;11.238;2022-09-29T12:45:05;31.77;;;5.15;;
63906;SDS011;50075;49.484;11.238;2022-09-29T12:47:50;28.48;;;4.90;;
63906;SDS011;50075;49.484;11.238;2022-09-29T12:50:43;30.30;;;5.03;;
63906;SDS011;50075;49.484;11.238;2022-09-29T12:56:23;30.42;;;5.03;;
63906;SDS011;50075;49.484;11.238;2022-09-29T12:58:59;37.13;;;5.43;;
63906;SDS011;50075;49.484;11.238;2022-09-29T13:01:33;29.88;;;5.00;;
63906;SDS011;50075;49.484;11.238;2022-09-29T13:26:53;35.55;;;5.70;;
63906;SDS011;50075;49.484;11.238;2022-09-29T13:29:24;37.90;;;6.45;;
63906;SDS011;50075;49.484;11.238;2022-09-29T13:31:53;43.90;;;7.18;;
63906;SDS011;50075;49.484;11.238;2022-09-29T13:37:07;28.83;;;5.38;;
63906;SDS011;50075;49.484;11.238;2022-09-29T13:39:38;31.73;;;5.30;;
63906;SDS011;50075;49.484;11.238;2022-09-29T13:53:45;31.60;;;4.93;;
63906;SDS011;50075;49.484;11.238;2022-09-29T13:58:29;29.77;;;4.75;;
63906;SDS011;50075;49.484;11.238;2022-09-29T14:00:58;29.90;;;5.20;;
63906;SDS011;50075;49.484;11.238;2022-09-29T14:08:59;34.60;;;5.47;;
63906;SDS011;50075;49.484;11.238;2022-09-29T14:11:38;28.00;;;5.07;;
63906;SDS011;50075;49.484;11.238;2022-09-29T14:14:18;34.35;;;5.28;;
63906;SDS011;50075;49.484;11.238;2022-09-29T14:27:46;26.48;;;4.53;;
63906;SDS011;50075;49.484;11.238;2022-09-29T14:35:27;33.65;;;5.65;;
63906;SDS011;50075;49.484;11.238;2022-09-29T14:38:20;43.10;;;7.72;;
63906;SDS011;50075;49.484;11.238;2022-09-29T14:40:53;32.42;;;6.43;;
63906;SDS011;50075;49.484;11.238;2022-09-29T14:52:17;33.03;;;6.07;;
63906;SDS011;50075;49.484;11.238;2022-09-29T14:57:52;29.25;;;6.40;;
63906;SDS011;50075;49.484;11.238;2022-09-29T15:00:28;32.42;;;6.18;;
63906;SDS011;50075;49.484;11.238;2022-09-29T15:03:14;29.25;;;5.75;;
63906;SDS011;50075;49.484;11.238;2022-09-29T15:06:02;32.90;;;5.88;;
63906;SDS011;50075;49.484;11.238;2022-09-29T15:09:33;31.45;;;5.32;;
63906;SDS011;50075;49.484;11.238;2022-09-29T15:16:51;32.03;;;5.63;;
63906;SDS011;50075;49.484;11.238;2022-09-29T15:19:49;28.98;;;5.45;;
63906;SDS011;50075;49.484;11.238;2022-09-29T15:27:54;32.25;;;5.63;;
63906;SDS011;50075;49.484;11.238;2022-09-29T15:30:26;25.05;;;5.20;;
63906;SDS011;50075;49.484;11.238;2022-09-29T15:32:53;33.78;;;6.80;;
63906;SDS011;50075;49.484;11.238;2022-09-29T15:35:27;30.67;;;6.40;;
63906;SDS011;50075;49.484;11.238;2022-09-29T15:37:55;28.25;;;7.15;;
63906;SDS011;50075;49.484;11.238;2022-09-29T15:40:23;29.38;;;6.63;;
63906;SDS011;50075;49.484;11.238;2022-09-29T15:42:50;30.25;;;7.82;;
63906;SDS011;50075;49.484;11.238;2022-09-29T15:45:25;34.15;;;7.20;;
63906;SDS011;50075;49.484;11.238;2022-09-29T15:48:04;26.88;;;6.68;;
63906;SDS011;50075;49.484;11.238;2022-09-29T15:50:33;34.95;;;6.57;;
63906;SDS011;50075;49.484;11.238;2022-09-29T15:53:07;35.10;;;7.93;;
63906;SDS011;50075;49.484;11.238;2022-09-29T15:55:34;33.55;;;7.05;;
63906;SDS011;50075;49.484;11.238;2022-09-29T15:58:00;34.67;;;7.78;;
63906;SDS011;50075;49.484;11.238;2022-09-29T16:08:26;36.00;;;8.75;;
63906;SDS011;50075;49.484;11.238;2022-09-29T16:10:58;36.90;;;8.35;;
63906;SDS011;50075;49.484;11.238;2022-09-29T16:16:03;29.98;;;7.20;;
63906;SDS011;50075;49.484;11.238;2022-09-29T16:18:39;47.88;;;8.15;;
63906;SDS011;50075;49.484;11.238;2022-09-29T16:21:11;33.00;;;8.52;;
63906;SDS011;50075;49.484;11.238;2022-09-29T16:23:48;48.13;;;9.35;;
63906;SDS011;50075;49.484;11.238;2022-09-29T16:26:17;39.13;;;10.02;;
63906;SDS011;50075;49.484;11.238;2022-09-29T16:31:32;35.78;;;11.05;;
63906;SDS011;50075;49.484;11.238;2022-09-29T16:33:58;32.67;;;9.25;;
63906;SDS011;50075;49.484;11.238;2022-09-29T16:36:25;32.83;;;9.23;;
63906;SDS011;50075;49.484;11.238;2022-09-29T16:38:51;45.00;;;9.88;;
63906;SDS011;50075;49.484;11.238;2022-09-29T16:41:36;36.65;;;9.88;;
63906;SDS011;50075;49.484;11.238;2022-09-29T16:46:45;41.10;;;12.50;;
63906;SDS011;50075;49.484;11.238;2022-09-29T16:49:19;34.50;;;10.05;;
63906;SDS011;50075;49.484;11.238;2022-09-29T16:54:43;31.15;;;9.30;;
63906;SDS011;50075;49.484;11.238;2022-09-29T16:59:51;40.83;;;11.68;;
63906;SDS011;50075;49.484;11.238;2022-09-29T17:02:19;35.65;;;11.32;;
63906;SDS011;50075;49.484;11.238;2022-09-29T17:04:46;43.97;;;10.38;;
63906;SDS011;50075;49.484;11.238;2022-09-29T17:07:13;46.63;;;13.02;;
63906;SDS011;50075;49.484;11.238;2022-09-29T17:09:42;37.72;;;11.80;;
63906;SDS011;50075;49.484;11.238;2022-09-29T17:12:13;35.85;;;10.68;;
63906;SDS011;50075;49.484;11.238;2022-09-29T17:14:40;34.72;;;11.75;;
63906;SDS011;50075;49.484;11.238;2022-09-29T17:17:08;32.78;;;9.98;;
63906;SDS011;50075;49.484;11.238;2022-09-29T17:19:41;44.03;;;12.82;;
63906;SDS011;50075;49.484;11.238;2022-09-29T17:25:01;45.40;;;11.52;;
63906;SDS011;50075;49.484;11.238;2022-09-29T17:29:03;54.50;;;14.27;;
63906;SDS011;50075;49.484;11.238;2022-09-29T17:31:29;59.97;;;14.07;;
63906;SDS011;50075;49.484;11.238;2022-09-29T17:33:54;50.85;;;12.65;;
63906;SDS011;50075;49.484;11.238;2022-09-29T17:36:19;53.10;;;13.93;;
63906;SDS011;50075;49.484;11.238;2022-09-29T17:38:47;43.05;;;13.13;;
63906;SDS011;50075;49.484;11.238;2022-09-29T17:41:15;41.53;;;12.27;;
63906;SDS011;50075;49.484;11.238;2022-09-29T17:43:42;42.95;;;12.10;;
63906;SDS011;50075;49.484;11.238;2022-09-29T17:46:11;32.38;;;10.50;;
63906;SDS011;50075;49.484;11.238;2022-09-29T17:48:38;35.20;;;12.23;;
63906;SDS011;50075;49.484;11.238;2022-09-29T17:51:05;30.95;;;10.30;;
63906;SDS011;50075;49.484;11.238;2022-09-29T17:53:34;31.10;;;10.45;;
63906;SDS011;50075;49.484;11.238;2022-09-29T17:55:59;32.80;;;10.13;;
63906;SDS011;50075;49.484;11.238;2022-09-29T17:58:26;27.27;;;7.65;;
63906;SDS011;50075;49.484;11.238;2022-09-29T18:00:52;29.50;;;8.88;;
63906;SDS011;50075;49.484;11.238;2022-09-29T18:03:19;30.08;;;9.63;;
63906;SDS011;50075;49.484;11.238;2022-09-29T18:05:46;34.75;;;8.38;;
63906;SDS011;50075;49.484;11.238;2022-09-29T18:08:19;46.33;;;13.50;;
63906;SDS011;50075;49.484;11.238;2022-09-29T18:10:46;43.30;;;11.52;;
63906;SDS011;50075;49.484;11.238;2022-09-29T18:13:15;36.45;;;9.20;;
63906;SDS011;50075;49.484;11.238;2022-09-29T18:15:40;47.00;;;13.55;;
63906;SDS011;50075;49.484;11.238;2022-09-29T18:18:09;39.47;;;11.52;;
63906;SDS011;50075;49.484;11.238;2022-09-29T18:20:39;26.33;;;9.10;;
63906;SDS011;50075;49.484;11.238;2022-09-29T18:23:05;27.27;;;10.20;;
63906;SDS011;50075;49.484;11.238;2022-09-29T18:25:31;28.00;;;9.65;;